Pinnacle, North Carolina
Current Conditions -  °F | °C
As of 5:35 AM on Monday 22 Dec 2014 (Local Time) from KMWK Reporting Station
Overcast Overcast  
Wind Chill: 35°   Ceiling: 2300
Heat Index: 38°   Visibility: 10mi
Dew Point: 34°   Wind: 5mph
Humidity: 84%   Direction: 40°NE
Pressure: 30.16"   Gusts: NA
Location:  36.33°N, 80.43°W
Report Text: KMWK 221035Z AUTO 04004KT 10SM OVC023 04/01 A3016 RMK AO2 T00350011
Loading
Personal Weather Stations






























Interactive Weather Map New forecast layout! Learn more

10-Day Weather Forecast

Advertisements
Track Severe Weather on mobile